sensor_id;sensor_type;location;lat;lon;timestamp;P1;durP1;ratioP1;P2;durP2;ratioP2
74957;SDS011;63741;42.624;26.276;2024-02-04T00:00:36;34.47;;;16.08;;
74957;SDS011;63741;42.624;26.276;2024-02-04T00:03:03;37.00;;;16.60;;
74957;SDS011;63741;42.624;26.276;2024-02-04T00:05:30;34.17;;;16.77;;
74957;SDS011;63741;42.624;26.276;2024-02-04T00:07:57;30.73;;;16.75;;
74957;SDS011;63741;42.624;26.276;2024-02-04T00:10:24;30.63;;;16.48;;
74957;SDS011;63741;42.624;26.276;2024-02-04T00:12:53;30.17;;;18.15;;
74957;SDS011;63741;42.624;26.276;2024-02-04T00:15:20;40.40;;;17.55;;
74957;SDS011;63741;42.624;26.276;2024-02-04T00:17:47;31.88;;;17.13;;
74957;SDS011;63741;42.624;26.276;2024-02-04T00:20:14;27.88;;;15.10;;
74957;SDS011;63741;42.624;26.276;2024-02-04T00:22:41;22.77;;;13.73;;
74957;SDS011;63741;42.624;26.276;2024-02-04T00:25:08;21.45;;;11.93;;
74957;SDS011;63741;42.624;26.276;2024-02-04T00:27:38;22.17;;;10.77;;
74957;SDS011;63741;42.624;26.276;2024-02-04T00:30:06;19.20;;;10.75;;
74957;SDS011;63741;42.624;26.276;2024-02-04T00:32:33;19.20;;;11.02;;
74957;SDS011;63741;42.624;26.276;2024-02-04T00:35:00;27.20;;;13.48;;
74957;SDS011;63741;42.624;26.276;2024-02-04T00:37:29;25.50;;;12.85;;
74957;SDS011;63741;42.624;26.276;2024-02-04T00:39:56;27.38;;;13.48;;
74957;SDS011;63741;42.624;26.276;2024-02-04T00:42:23;19.83;;;10.20;;
74957;SDS011;63741;42.624;26.276;2024-02-04T00:44:50;22.05;;;11.60;;
74957;SDS011;63741;42.624;26.276;2024-02-04T00:47:17;18.63;;;9.82;;
74957;SDS011;63741;42.624;26.276;2024-02-04T00:49:44;18.60;;;9.88;;
74957;SDS011;63741;42.624;26.276;2024-02-04T00:52:11;22.85;;;11.43;;
74957;SDS011;63741;42.624;26.276;2024-02-04T00:54:38;18.85;;;10.20;;
74957;SDS011;63741;42.624;26.276;2024-02-04T00:57:05;19.80;;;10.63;;
74957;SDS011;63741;42.624;26.276;2024-02-04T00:59:32;16.27;;;9.30;;
74957;SDS011;63741;42.624;26.276;2024-02-04T01:01:59;20.55;;;10.45;;
74957;SDS011;63741;42.624;26.276;2024-02-04T01:04:26;23.27;;;11.60;;
74957;SDS011;63741;42.624;26.276;2024-02-04T01:06:53;20.13;;;10.90;;
74957;SDS011;63741;42.624;26.276;2024-02-04T01:09:27;25.08;;;12.48;;
74957;SDS011;63741;42.624;26.276;2024-02-04T01:11:56;16.77;;;9.20;;
74957;SDS011;63741;42.624;26.276;2024-02-04T01:14:23;17.63;;;9.43;;
74957;SDS011;63741;42.624;26.276;2024-02-04T01:16:50;20.70;;;11.20;;
74957;SDS011;63741;42.624;26.276;2024-02-04T01:19:17;22.23;;;11.43;;
74957;SDS011;63741;42.624;26.276;2024-02-04T01:21:44;20.60;;;10.63;;
74957;SDS011;63741;42.624;26.276;2024-02-04T01:24:12;29.02;;;12.20;;
74957;SDS011;63741;42.624;26.276;2024-02-04T01:26:39;23.27;;;11.32;;
74957;SDS011;63741;42.624;26.276;2024-02-04T01:29:06;23.58;;;10.88;;
74957;SDS011;63741;42.624;26.276;2024-02-04T01:31:33;16.25;;;9.13;;
74957;SDS011;63741;42.624;26.276;2024-02-04T01:34:00;19.85;;;9.10;;
74957;SDS011;63741;42.624;26.276;2024-02-04T01:36:27;17.50;;;8.82;;
74957;SDS011;63741;42.624;26.276;2024-02-04T01:38:54;19.13;;;8.15;;
74957;SDS011;63741;42.624;26.276;2024-02-04T01:41:21;16.10;;;7.88;;
74957;SDS011;63741;42.624;26.276;2024-02-04T01:43:48;17.17;;;8.93;;
74957;SDS011;63741;42.624;26.276;2024-02-04T01:46:15;16.73;;;8.52;;
74957;SDS011;63741;42.624;26.276;2024-02-04T01:48:43;13.85;;;7.85;;
74957;SDS011;63741;42.624;26.276;2024-02-04T01:51:10;14.98;;;8.43;;
74957;SDS011;63741;42.624;26.276;2024-02-04T01:53:38;18.38;;;9.63;;
74957;SDS011;63741;42.624;26.276;2024-02-04T01:56:08;19.73;;;10.40;;
74957;SDS011;63741;42.624;26.276;2024-02-04T01:58:35;19.75;;;10.80;;
74957;SDS011;63741;42.624;26.276;2024-02-04T02:01:02;20.60;;;11.07;;
74957;SDS011;63741;42.624;26.276;2024-02-04T02:03:31;19.30;;;10.05;;
74957;SDS011;63741;42.624;26.276;2024-02-04T02:05:59;21.33;;;10.52;;
74957;SDS011;63741;42.624;26.276;2024-02-04T02:08:26;20.58;;;11.18;;
74957;SDS011;63741;42.624;26.276;2024-02-04T02:10:57;22.58;;;10.57;;
74957;SDS011;63741;42.624;26.276;2024-02-04T02:13:50;19.50;;;9.85;;
74957;SDS011;63741;42.624;26.276;2024-02-04T02:16:25;20.98;;;11.43;;
74957;SDS011;63741;42.624;26.276;2024-02-04T02:19:05;22.98;;;11.02;;
74957;SDS011;63741;42.624;26.276;2024-02-04T02:21:47;22.13;;;11.48;;
74957;SDS011;63741;42.624;26.276;2024-02-04T02:26:50;23.50;;;11.32;;
74957;SDS011;63741;42.624;26.276;2024-02-04T02:29:19;20.23;;;10.48;;
74957;SDS011;63741;42.624;26.276;2024-02-04T02:31:46;20.13;;;11.30;;
74957;SDS011;63741;42.624;26.276;2024-02-04T02:34:15;33.17;;;14.48;;
74957;SDS011;63741;42.624;26.276;2024-02-04T02:36:50;24.70;;;12.43;;
74957;SDS011;63741;42.624;26.276;2024-02-04T02:39:33;25.13;;;11.85;;
74957;SDS011;63741;42.624;26.276;2024-02-04T02:42:11;19.52;;;10.60;;
74957;SDS011;63741;42.624;26.276;2024-02-04T02:44:40;15.65;;;8.90;;
74957;SDS011;63741;42.624;26.276;2024-02-04T02:47:09;16.50;;;10.00;;
74957;SDS011;63741;42.624;26.276;2024-02-04T02:49:37;18.23;;;10.23;;
74957;SDS011;63741;42.624;26.276;2024-02-04T02:52:04;22.08;;;11.32;;
74957;SDS011;63741;42.624;26.276;2024-02-04T02:54:32;18.92;;;9.40;;
74957;SDS011;63741;42.624;26.276;2024-02-04T02:56:59;20.30;;;10.05;;
74957;SDS011;63741;42.624;26.276;2024-02-04T02:59:26;16.35;;;9.43;;
74957;SDS011;63741;42.624;26.276;2024-02-04T03:01:53;17.15;;;8.93;;
74957;SDS011;63741;42.624;26.276;2024-02-04T03:04:19;19.77;;;10.05;;
74957;SDS011;63741;42.624;26.276;2024-02-04T03:06:46;17.55;;;9.75;;
74957;SDS011;63741;42.624;26.276;2024-02-04T03:09:14;18.52;;;9.65;;
74957;SDS011;63741;42.624;26.276;2024-02-04T03:11:40;19.17;;;10.45;;
74957;SDS011;63741;42.624;26.276;2024-02-04T03:14:09;17.75;;;9.82;;
74957;SDS011;63741;42.624;26.276;2024-02-04T03:16:36;20.17;;;10.90;;
74957;SDS011;63741;42.624;26.276;2024-02-04T03:19:04;19.63;;;10.98;;
74957;SDS011;63741;42.624;26.276;2024-02-04T03:21:33;18.27;;;10.55;;
74957;SDS011;63741;42.624;26.276;2024-02-04T03:24:00;20.52;;;10.88;;
74957;SDS011;63741;42.624;26.276;2024-02-04T03:26:27;17.80;;;10.45;;
74957;SDS011;63741;42.624;26.276;2024-02-04T03:28:54;18.52;;;9.52;;
74957;SDS011;63741;42.624;26.276;2024-02-04T03:31:21;19.60;;;10.60;;
74957;SDS011;63741;42.624;26.276;2024-02-04T03:33:50;18.92;;;9.85;;
74957;SDS011;63741;42.624;26.276;2024-02-04T03:36:21;21.13;;;10.23;;
74957;SDS011;63741;42.624;26.276;2024-02-04T03:38:52;18.83;;;10.57;;
74957;SDS011;63741;42.624;26.276;2024-02-04T03:41:19;24.02;;;11.73;;
74957;SDS011;63741;42.624;26.276;2024-02-04T03:43:47;25.75;;;11.68;;
74957;SDS011;63741;42.624;26.276;2024-02-04T03:46:14;21.48;;;10.50;;
74957;SDS011;63741;42.624;26.276;2024-02-04T03:48:43;21.80;;;11.13;;
74957;SDS011;63741;42.624;26.276;2024-02-04T03:51:17;20.80;;;10.85;;
74957;SDS011;63741;42.624;26.276;2024-02-04T03:53:47;24.15;;;12.52;;
74957;SDS011;63741;42.624;26.276;2024-02-04T03:56:15;19.10;;;10.40;;
74957;SDS011;63741;42.624;26.276;2024-02-04T03:58:42;18.50;;;10.02;;
74957;SDS011;63741;42.624;26.276;2024-02-04T04:01:12;20.65;;;11.30;;
74957;SDS011;63741;42.624;26.276;2024-02-04T04:03:42;16.60;;;9.82;;
74957;SDS011;63741;42.624;26.276;2024-02-04T04:06:10;20.67;;;10.27;;
74957;SDS011;63741;42.624;26.276;2024-02-04T04:08:38;31.25;;;9.75;;
74957;SDS011;63741;42.624;26.276;2024-02-04T04:11:07;20.38;;;9.27;;
74957;SDS011;63741;42.624;26.276;2024-02-04T04:13:35;22.35;;;9.60;;
74957;SDS011;63741;42.624;26.276;2024-02-04T04:16:03;17.63;;;10.00;;
74957;SDS011;63741;42.624;26.276;2024-02-04T04:18:31;23.60;;;11.13;;
74957;SDS011;63741;42.624;26.276;2024-02-04T04:20:58;22.73;;;12.05;;
74957;SDS011;63741;42.624;26.276;2024-02-04T04:23:25;22.73;;;11.98;;
74957;SDS011;63741;42.624;26.276;2024-02-04T04:25:52;20.05;;;9.75;;
74957;SDS011;63741;42.624;26.276;2024-02-04T04:28:19;15.05;;;8.32;;
74957;SDS011;63741;42.624;26.276;2024-02-04T04:30:46;16.02;;;8.18;;
74957;SDS011;63741;42.624;26.276;2024-02-04T04:33:13;14.35;;;8.07;;
74957;SDS011;63741;42.624;26.276;2024-02-04T04:35:40;16.77;;;8.27;;
74957;SDS011;63741;42.624;26.276;2024-02-04T04:38:07;25.10;;;12.00;;
74957;SDS011;63741;42.624;26.276;2024-02-04T04:40:34;22.08;;;12.18;;
74957;SDS011;63741;42.624;26.276;2024-02-04T04:43:01;21.63;;;11.63;;
74957;SDS011;63741;42.624;26.276;2024-02-04T04:45:28;19.52;;;10.52;;
74957;SDS011;63741;42.624;26.276;2024-02-04T04:47:55;19.35;;;10.20;;
74957;SDS011;63741;42.624;26.276;2024-02-04T04:50:22;17.13;;;8.95;;
74957;SDS011;63741;42.624;26.276;2024-02-04T04:52:50;21.73;;;10.50;;
74957;SDS011;63741;42.624;26.276;2024-02-04T04:55:17;27.40;;;11.88;;
74957;SDS011;63741;42.624;26.276;2024-02-04T04:57:45;14.43;;;8.68;;
74957;SDS011;63741;42.624;26.276;2024-02-04T05:00:12;13.68;;;7.30;;
74957;SDS011;63741;42.624;26.276;2024-02-04T05:02:40;15.30;;;7.20;;
74957;SDS011;63741;42.624;26.276;2024-02-04T05:05:07;23.25;;;11.50;;
74957;SDS011;63741;42.624;26.276;2024-02-04T05:07:34;16.38;;;8.95;;
74957;SDS011;63741;42.624;26.276;2024-02-04T05:10:01;18.13;;;9.43;;
74957;SDS011;63741;42.624;26.276;2024-02-04T05:12:29;22.92;;;11.18;;
74957;SDS011;63741;42.624;26.276;2024-02-04T05:14:56;21.52;;;12.60;;
74957;SDS011;63741;42.624;26.276;2024-02-04T05:17:23;24.45;;;12.18;;
74957;SDS011;63741;42.624;26.276;2024-02-04T05:19:50;31.15;;;13.88;;
74957;SDS011;63741;42.624;26.276;2024-02-04T05:22:17;21.30;;;11.32;;
74957;SDS011;63741;42.624;26.276;2024-02-04T05:24:44;26.83;;;14.55;;
74957;SDS011;63741;42.624;26.276;2024-02-04T05:27:11;21.60;;;11.43;;
74957;SDS011;63741;42.624;26.276;2024-02-04T05:29:38;24.33;;;12.13;;
74957;SDS011;63741;42.624;26.276;2024-02-04T05:32:05;22.45;;;12.60;;
74957;SDS011;63741;42.624;26.276;2024-02-04T05:34:32;30.90;;;13.98;;
74957;SDS011;63741;42.624;26.276;2024-02-04T05:37:01;29.33;;;14.20;;
74957;SDS011;63741;42.624;26.276;2024-02-04T05:39:28;25.02;;;12.70;;
74957;SDS011;63741;42.624;26.276;2024-02-04T05:41:55;18.58;;;9.70;;
74957;SDS011;63741;42.624;26.276;2024-02-04T05:44:22;14.02;;;7.93;;
74957;SDS011;63741;42.624;26.276;2024-02-04T05:46:48;20.63;;;10.13;;
74957;SDS011;63741;42.624;26.276;2024-02-04T05:49:16;16.67;;;9.52;;
74957;SDS011;63741;42.624;26.276;2024-02-04T05:51:43;16.27;;;7.25;;
74957;SDS011;63741;42.624;26.276;2024-02-04T05:54:10;16.02;;;8.20;;
74957;SDS011;63741;42.624;26.276;2024-02-04T05:56:37;12.52;;;7.63;;
74957;SDS011;63741;42.624;26.276;2024-02-04T05:59:04;14.77;;;7.00;;
74957;SDS011;63741;42.624;26.276;2024-02-04T06:01:31;16.17;;;8.23;;
74957;SDS011;63741;42.624;26.276;2024-02-04T06:03:59;15.68;;;7.88;;
74957;SDS011;63741;42.624;26.276;2024-02-04T06:06:26;14.73;;;8.27;;
74957;SDS011;63741;42.624;26.276;2024-02-04T06:08:53;20.25;;;8.35;;
74957;SDS011;63741;42.624;26.276;2024-02-04T06:11:20;24.20;;;12.77;;
74957;SDS011;63741;42.624;26.276;2024-02-04T06:13:47;17.42;;;11.25;;
74957;SDS011;63741;42.624;26.276;2024-02-04T06:16:14;21.83;;;11.10;;
74957;SDS011;63741;42.624;26.276;2024-02-04T06:18:42;95.55;;;30.63;;
74957;SDS011;63741;42.624;26.276;2024-02-04T06:21:09;186.30;;;43.83;;
74957;SDS011;63741;42.624;26.276;2024-02-04T06:23:37;50.92;;;21.58;;
74957;SDS011;63741;42.624;26.276;2024-02-04T06:26:05;38.15;;;18.52;;
74957;SDS011;63741;42.624;26.276;2024-02-04T06:28:32;35.03;;;16.75;;
74957;SDS011;63741;42.624;26.276;2024-02-04T06:30:59;24.60;;;12.75;;
74957;SDS011;63741;42.624;26.276;2024-02-04T06:33:26;29.33;;;13.88;;
74957;SDS011;63741;42.624;26.276;2024-02-04T06:35:54;34.05;;;14.35;;
74957;SDS011;63741;42.624;26.276;2024-02-04T06:38:20;23.50;;;12.70;;
74957;SDS011;63741;42.624;26.276;2024-02-04T06:40:48;24.05;;;14.15;;
74957;SDS011;63741;42.624;26.276;2024-02-04T06:43:14;30.08;;;17.88;;
74957;SDS011;63741;42.624;26.276;2024-02-04T06:45:41;36.22;;;20.05;;
74957;SDS011;63741;42.624;26.276;2024-02-04T06:48:08;33.92;;;17.88;;
74957;SDS011;63741;42.624;26.276;2024-02-04T06:50:36;29.10;;;15.57;;
74957;SDS011;63741;42.624;26.276;2024-02-04T06:53:04;39.13;;;19.40;;
74957;SDS011;63741;42.624;26.276;2024-02-04T06:55:30;42.67;;;20.73;;
74957;SDS011;63741;42.624;26.276;2024-02-04T06:57:57;34.40;;;18.98;;
74957;SDS011;63741;42.624;26.276;2024-02-04T07:00:24;37.03;;;18.75;;
74957;SDS011;63741;42.624;26.276;2024-02-04T07:02:52;30.98;;;14.52;;
74957;SDS011;63741;42.624;26.276;2024-02-04T07:05:19;44.30;;;18.45;;
74957;SDS011;63741;42.624;26.276;2024-02-04T07:07:49;43.90;;;18.27;;
74957;SDS011;63741;42.624;26.276;2024-02-04T07:10:16;45.17;;;23.13;;
74957;SDS011;63741;42.624;26.276;2024-02-04T07:12:44;51.17;;;28.65;;
74957;SDS011;63741;42.624;26.276;2024-02-04T07:15:11;49.92;;;26.48;;
74957;SDS011;63741;42.624;26.276;2024-02-04T07:17:38;42.00;;;19.83;;
74957;SDS011;63741;42.624;26.276;2024-02-04T07:20:05;53.42;;;22.27;;
74957;SDS011;63741;42.624;26.276;2024-02-04T07:22:33;43.58;;;18.50;;
74957;SDS011;63741;42.624;26.276;2024-02-04T07:25:03;34.30;;;17.13;;
74957;SDS011;63741;42.624;26.276;2024-02-04T07:27:31;28.55;;;14.00;;
74957;SDS011;63741;42.624;26.276;2024-02-04T07:29:58;33.38;;;14.05;;
74957;SDS011;63741;42.624;26.276;2024-02-04T07:32:25;23.15;;;12.32;;
74957;SDS011;63741;42.624;26.276;2024-02-04T07:34:52;20.70;;;10.85;;
74957;SDS011;63741;42.624;26.276;2024-02-04T07:37:19;16.73;;;10.00;;
74957;SDS011;63741;42.624;26.276;2024-02-04T07:39:46;19.33;;;11.30;;
74957;SDS011;63741;42.624;26.276;2024-02-04T07:42:13;16.98;;;10.05;;
74957;SDS011;63741;42.624;26.276;2024-02-04T07:44:40;21.05;;;10.15;;
74957;SDS011;63741;42.624;26.276;2024-02-04T07:47:07;19.77;;;11.95;;
74957;SDS011;63741;42.624;26.276;2024-02-04T07:49:34;21.67;;;8.65;;
74957;SDS011;63741;42.624;26.276;2024-02-04T07:52:01;15.50;;;8.52;;
74957;SDS011;63741;42.624;26.276;2024-02-04T07:54:28;16.90;;;7.43;;
74957;SDS011;63741;42.624;26.276;2024-02-04T07:56:55;15.48;;;7.75;;
74957;SDS011;63741;42.624;26.276;2024-02-04T07:59:22;18.30;;;8.70;;
74957;SDS011;63741;42.624;26.276;2024-02-04T08:01:49;15.15;;;8.88;;
74957;SDS011;63741;42.624;26.276;2024-02-04T08:04:16;16.13;;;7.70;;
74957;SDS011;63741;42.624;26.276;2024-02-04T08:06:43;13.05;;;7.25;;
74957;SDS011;63741;42.624;26.276;2024-02-04T08:09:10;18.95;;;9.23;;
74957;SDS011;63741;42.624;26.276;2024-02-04T08:11:38;13.55;;;7.40;;
74957;SDS011;63741;42.624;26.276;2024-02-04T08:14:05;14.75;;;8.18;;
74957;SDS011;63741;42.624;26.276;2024-02-04T08:16:32;12.70;;;8.73;;
74957;SDS011;63741;42.624;26.276;2024-02-04T08:18:59;11.73;;;8.57;;
74957;SDS011;63741;42.624;26.276;2024-02-04T08:21:26;12.38;;;7.45;;
74957;SDS011;63741;42.624;26.276;2024-02-04T08:23:53;14.80;;;8.93;;
74957;SDS011;63741;42.624;26.276;2024-02-04T08:26:20;14.35;;;8.75;;
74957;SDS011;63741;42.624;26.276;2024-02-04T08:28:47;17.38;;;10.35;;
74957;SDS011;63741;42.624;26.276;2024-02-04T08:31:14;28.77;;;18.38;;
74957;SDS011;63741;42.624;26.276;2024-02-04T08:33:42;17.42;;;11.10;;
74957;SDS011;63741;42.624;26.276;2024-02-04T08:36:09;18.02;;;12.23;;
74957;SDS011;63741;42.624;26.276;2024-02-04T08:38:39;16.20;;;10.75;;
74957;SDS011;63741;42.624;26.276;2024-02-04T08:41:06;14.55;;;7.90;;
74957;SDS011;63741;42.624;26.276;2024-02-04T08:43:33;13.25;;;7.63;;
74957;SDS011;63741;42.624;26.276;2024-02-04T08:46:00;12.93;;;7.78;;
74957;SDS011;63741;42.624;26.276;2024-02-04T08:51:10;16.55;;;10.63;;
74957;SDS011;63741;42.624;26.276;2024-02-04T08:53:38;21.65;;;11.55;;
74957;SDS011;63741;42.624;26.276;2024-02-04T08:56:05;18.83;;;10.98;;
74957;SDS011;63741;42.624;26.276;2024-02-04T08:58:33;30.67;;;19.17;;
74957;SDS011;63741;42.624;26.276;2024-02-04T09:00:59;51.67;;;24.27;;
74957;SDS011;63741;42.624;26.276;2024-02-04T09:03:26;31.80;;;14.77;;
74957;SDS011;63741;42.624;26.276;2024-02-04T09:05:53;45.85;;;21.67;;
74957;SDS011;63741;42.624;26.276;2024-02-04T09:08:21;25.45;;;13.93;;
74957;SDS011;63741;42.624;26.276;2024-02-04T09:10:48;20.77;;;12.05;;
74957;SDS011;63741;42.624;26.276;2024-02-04T09:13:15;32.20;;;16.58;;
74957;SDS011;63741;42.624;26.276;2024-02-04T09:15:42;35.20;;;16.58;;
74957;SDS011;63741;42.624;26.276;2024-02-04T09:18:09;33.75;;;17.42;;
74957;SDS011;63741;42.624;26.276;2024-02-04T09:20:37;79.88;;;47.17;;
74957;SDS011;63741;42.624;26.276;2024-02-04T09:23:04;61.90;;;29.13;;
74957;SDS011;63741;42.624;26.276;2024-02-04T09:25:32;28.05;;;18.80;;
74957;SDS011;63741;42.624;26.276;2024-02-04T09:27:59;33.65;;;17.55;;
74957;SDS011;63741;42.624;26.276;2024-02-04T09:30:26;17.30;;;9.52;;
74957;SDS011;63741;42.624;26.276;2024-02-04T09:32:53;15.50;;;10.13;;
74957;SDS011;63741;42.624;26.276;2024-02-04T09:35:21;14.48;;;9.00;;
74957;SDS011;63741;42.624;26.276;2024-02-04T09:37:48;11.88;;;5.28;;
74957;SDS011;63741;42.624;26.276;2024-02-04T09:40:15;7.97;;;5.05;;
74957;SDS011;63741;42.624;26.276;2024-02-04T09:42:43;10.65;;;6.05;;
74957;SDS011;63741;42.624;26.276;2024-02-04T09:45:11;14.18;;;7.72;;
74957;SDS011;63741;42.624;26.276;2024-02-04T09:47:41;17.45;;;9.13;;
74957;SDS011;63741;42.624;26.276;2024-02-04T09:50:11;16.30;;;11.88;;
74957;SDS011;63741;42.624;26.276;2024-02-04T09:52:40;16.73;;;10.35;;
74957;SDS011;63741;42.624;26.276;2024-02-04T09:55:15;18.63;;;11.68;;
74957;SDS011;63741;42.624;26.276;2024-02-04T09:57:44;16.00;;;10.20;;
74957;SDS011;63741;42.624;26.276;2024-02-04T10:00:12;15.18;;;9.52;;
74957;SDS011;63741;42.624;26.276;2024-02-04T10:02:41;28.38;;;18.23;;
74957;SDS011;63741;42.624;26.276;2024-02-04T10:05:09;20.33;;;12.13;;
74957;SDS011;63741;42.624;26.276;2024-02-04T10:07:37;20.23;;;12.07;;
74957;SDS011;63741;42.624;26.276;2024-02-04T10:10:05;16.48;;;10.32;;
74957;SDS011;63741;42.624;26.276;2024-02-04T10:12:34;15.00;;;10.25;;
74957;SDS011;63741;42.624;26.276;2024-02-04T10:15:02;16.10;;;10.15;;
74957;SDS011;63741;42.624;26.276;2024-02-04T10:17:33;17.25;;;10.55;;
74957;SDS011;63741;42.624;26.276;2024-02-04T10:20:00;22.98;;;14.55;;
74957;SDS011;63741;42.624;26.276;2024-02-04T10:22:29;12.85;;;7.65;;
74957;SDS011;63741;42.624;26.276;2024-02-04T10:25:05;12.07;;;8.88;;
74957;SDS011;63741;42.624;26.276;2024-02-04T10:27:34;10.73;;;6.80;;
74957;SDS011;63741;42.624;26.276;2024-02-04T10:30:04;11.93;;;6.95;;
74957;SDS011;63741;42.624;26.276;2024-02-04T10:32:32;10.23;;;6.72;;
74957;SDS011;63741;42.624;26.276;2024-02-04T10:35:00;12.93;;;7.60;;
74957;SDS011;63741;42.624;26.276;2024-02-04T10:37:28;8.52;;;5.45;;
74957;SDS011;63741;42.624;26.276;2024-02-04T10:39:56;8.70;;;5.13;;
74957;SDS011;63741;42.624;26.276;2024-02-04T10:42:24;8.45;;;5.10;;
74957;SDS011;63741;42.624;26.276;2024-02-04T10:44:55;6.82;;;4.55;;
74957;SDS011;63741;42.624;26.276;2024-02-04T10:47:29;8.43;;;5.03;;
74957;SDS011;63741;42.624;26.276;2024-02-04T10:50:00;8.23;;;5.22;;
74957;SDS011;63741;42.624;26.276;2024-02-04T10:52:33;7.90;;;5.28;;
74957;SDS011;63741;42.624;26.276;2024-02-04T10:55:05;7.57;;;4.50;;
74957;SDS011;63741;42.624;26.276;2024-02-04T10:57:34;8.60;;;5.32;;
74957;SDS011;63741;42.624;26.276;2024-02-04T11:00:02;7.82;;;4.65;;
74957;SDS011;63741;42.624;26.276;2024-02-04T11:02:35;6.80;;;4.15;;
74957;SDS011;63741;42.624;26.276;2024-02-04T11:05:05;7.28;;;4.57;;
74957;SDS011;63741;42.624;26.276;2024-02-04T11:07:34;9.73;;;6.25;;
74957;SDS011;63741;42.624;26.276;2024-02-04T11:10:02;12.93;;;7.00;;
74957;SDS011;63741;42.624;26.276;2024-02-04T11:12:30;10.20;;;6.70;;
74957;SDS011;63741;42.624;26.276;2024-02-04T11:15:03;6.38;;;4.22;;
74957;SDS011;63741;42.624;26.276;2024-02-04T11:22:37;7.80;;;4.32;;
74957;SDS011;63741;42.624;26.276;2024-02-04T11:28:11;9.30;;;4.90;;
74957;SDS011;63741;42.624;26.276;2024-02-04T11:30:39;9.10;;;5.00;;
74957;SDS011;63741;42.624;26.276;2024-02-04T11:33:06;7.03;;;4.40;;
74957;SDS011;63741;42.624;26.276;2024-02-04T11:35:34;6.53;;;4.13;;
74957;SDS011;63741;42.624;26.276;2024-02-04T11:38:05;6.32;;;4.20;;
74957;SDS011;63741;42.624;26.276;2024-02-04T11:40:36;6.65;;;4.40;;
74957;SDS011;63741;42.624;26.276;2024-02-04T11:43:04;9.60;;;4.85;;
74957;SDS011;63741;42.624;26.276;2024-02-04T11:45:38;11.35;;;4.85;;
74957;SDS011;63741;42.624;26.276;2024-02-04T11:48:09;6.80;;;4.30;;
74957;SDS011;63741;42.624;26.276;2024-02-04T11:50:38;7.85;;;4.47;;
74957;SDS011;63741;42.624;26.276;2024-02-04T11:53:09;7.45;;;3.88;;
74957;SDS011;63741;42.624;26.276;2024-02-04T11:55:38;5.55;;;3.90;;
74957;SDS011;63741;42.624;26.276;2024-02-04T11:58:11;8.85;;;4.88;;
74957;SDS011;63741;42.624;26.276;2024-02-04T12:00:41;10.95;;;6.15;;
74957;SDS011;63741;42.624;26.276;2024-02-04T12:03:10;8.00;;;5.70;;
74957;SDS011;63741;42.624;26.276;2024-02-04T12:05:37;7.97;;;6.43;;
74957;SDS011;63741;42.624;26.276;2024-02-04T12:08:07;13.10;;;8.20;;
74957;SDS011;63741;42.624;26.276;2024-02-04T12:10:35;12.85;;;8.30;;
74957;SDS011;63741;42.624;26.276;2024-02-04T12:13:03;13.95;;;7.63;;
74957;SDS011;63741;42.624;26.276;2024-02-04T12:15:31;9.93;;;6.05;;
74957;SDS011;63741;42.624;26.276;2024-02-04T12:18:11;7.78;;;4.45;;
74957;SDS011;63741;42.624;26.276;2024-02-04T12:20:41;6.95;;;3.92;;
74957;SDS011;63741;42.624;26.276;2024-02-04T12:23:08;7.20;;;3.88;;
74957;SDS011;63741;42.624;26.276;2024-02-04T12:25:36;8.38;;;4.03;;
74957;SDS011;63741;42.624;26.276;2024-02-04T12:30:35;7.75;;;4.15;;
74957;SDS011;63741;42.624;26.276;2024-02-04T12:33:03;9.38;;;4.72;;
74957;SDS011;63741;42.624;26.276;2024-02-04T12:35:33;10.45;;;5.03;;
74957;SDS011;63741;42.624;26.276;2024-02-04T12:38:00;6.75;;;3.90;;
74957;SDS011;63741;42.624;26.276;2024-02-04T12:40:28;6.53;;;3.97;;
74957;SDS011;63741;42.624;26.276;2024-02-04T12:43:00;6.68;;;4.45;;
74957;SDS011;63741;42.624;26.276;2024-02-04T12:45:32;8.48;;;4.97;;
74957;SDS011;63741;42.624;26.276;2024-02-04T12:48:01;8.52;;;4.75;;
74957;SDS011;63741;42.624;26.276;2024-02-04T12:50:29;9.95;;;5.20;;
74957;SDS011;63741;42.624;26.276;2024-02-04T12:53:06;15.90;;;8.63;;
74957;SDS011;63741;42.624;26.276;2024-02-04T12:55:35;15.45;;;10.25;;
74957;SDS011;63741;42.624;26.276;2024-02-04T12:58:10;18.60;;;10.38;;
74957;SDS011;63741;42.624;26.276;2024-02-04T13:00:48;14.65;;;8.55;;
74957;SDS011;63741;42.624;26.276;2024-02-04T13:03:15;9.88;;;6.18;;
74957;SDS011;63741;42.624;26.276;2024-02-04T13:05:43;11.90;;;7.35;;
74957;SDS011;63741;42.624;26.276;2024-02-04T13:08:10;10.55;;;6.63;;
74957;SDS011;63741;42.624;26.276;2024-02-04T13:10:37;16.63;;;9.48;;
74957;SDS011;63741;42.624;26.276;2024-02-04T13:13:05;17.33;;;10.40;;
74957;SDS011;63741;42.624;26.276;2024-02-04T13:15:36;16.77;;;8.65;;
74957;SDS011;63741;42.624;26.276;2024-02-04T13:18:06;24.45;;;14.45;;
74957;SDS011;63741;42.624;26.276;2024-02-04T13:20:35;17.25;;;10.38;;
74957;SDS011;63741;42.624;26.276;2024-02-04T13:23:02;15.80;;;9.57;;
74957;SDS011;63741;42.624;26.276;2024-02-04T13:25:32;22.13;;;11.60;;
74957;SDS011;63741;42.624;26.276;2024-02-04T13:27:59;22.63;;;11.93;;
74957;SDS011;63741;42.624;26.276;2024-02-04T13:30:26;46.00;;;26.52;;
74957;SDS011;63741;42.624;26.276;2024-02-04T13:32:54;23.45;;;13.52;;
74957;SDS011;63741;42.624;26.276;2024-02-04T13:35:23;19.83;;;12.93;;
74957;SDS011;63741;42.624;26.276;2024-02-04T13:37:50;13.10;;;7.57;;
74957;SDS011;63741;42.624;26.276;2024-02-04T13:40:19;18.80;;;8.55;;
74957;SDS011;63741;42.624;26.276;2024-02-04T13:42:47;20.00;;;11.30;;
74957;SDS011;63741;42.624;26.276;2024-02-04T13:45:14;12.52;;;7.32;;
74957;SDS011;63741;42.624;26.276;2024-02-04T13:47:42;20.98;;;12.27;;
74957;SDS011;63741;42.624;26.276;2024-02-04T13:50:10;29.38;;;17.40;;
74957;SDS011;63741;42.624;26.276;2024-02-04T13:52:38;22.15;;;12.32;;
74957;SDS011;63741;42.624;26.276;2024-02-04T13:55:06;19.88;;;11.05;;
74957;SDS011;63741;42.624;26.276;2024-02-04T13:57:34;26.60;;;15.38;;
74957;SDS011;63741;42.624;26.276;2024-02-04T14:00:02;32.72;;;18.58;;
74957;SDS011;63741;42.624;26.276;2024-02-04T14:02:35;37.40;;;22.63;;
74957;SDS011;63741;42.624;26.276;2024-02-04T14:05:02;19.85;;;11.52;;
74957;SDS011;63741;42.624;26.276;2024-02-04T14:07:30;28.77;;;14.75;;
74957;SDS011;63741;42.624;26.276;2024-02-04T14:09:57;25.00;;;13.70;;
74957;SDS011;63741;42.624;26.276;2024-02-04T14:12:24;16.52;;;9.07;;
74957;SDS011;63741;42.624;26.276;2024-02-04T14:14:51;16.73;;;8.25;;
74957;SDS011;63741;42.624;26.276;2024-02-04T14:17:17;21.05;;;11.25;;
74957;SDS011;63741;42.624;26.276;2024-02-04T14:19:45;16.05;;;10.38;;
74957;SDS011;63741;42.624;26.276;2024-02-04T14:22:15;32.00;;;16.60;;
74957;SDS011;63741;42.624;26.276;2024-02-04T14:24:47;27.20;;;17.25;;
74957;SDS011;63741;42.624;26.276;2024-02-04T14:27:14;32.47;;;17.48;;
74957;SDS011;63741;42.624;26.276;2024-02-04T14:29:41;43.97;;;22.95;;
74957;SDS011;63741;42.624;26.276;2024-02-04T14:32:08;10.05;;;6.22;;
74957;SDS011;63741;42.624;26.276;2024-02-04T14:34:35;6.43;;;4.53;;
74957;SDS011;63741;42.624;26.276;2024-02-04T14:37:02;10.38;;;6.25;;